sensor_id;sensor_type;location;lat;lon;timestamp;pressure;altitude;pressure_sealevel;temperature;humidity
8051;BME280;4068;42.158;24.732;2022-10-17T00:01:25;101081.97;;;6.51;100.00
8051;BME280;4068;42.158;24.732;2022-10-17T00:03:51;101089.81;;;6.53;100.00
8051;BME280;4068;42.158;24.732;2022-10-17T00:06:16;101080.19;;;6.52;100.00
8051;BME280;4068;42.158;24.732;2022-10-17T00:08:43;101086.56;;;6.46;100.00
8051;BME280;4068;42.158;24.732;2022-10-17T00:11:20;101090.34;;;6.39;100.00
8051;BME280;4068;42.158;24.732;2022-10-17T00:13:47;101061.03;;;6.25;100.00
8051;BME280;4068;42.158;24.732;2022-10-17T00:16:13;101091.44;;;6.33;100.00
8051;BME280;4068;42.158;24.732;2022-10-17T00:18:38;101088.81;;;6.33;100.00
8051;BME280;4068;42.158;24.732;2022-10-17T00:21:04;101080.44;;;6.22;100.00
8051;BME280;4068;42.158;24.732;2022-10-17T00:23:30;101097.03;;;6.24;100.00
8051;BME280;4068;42.158;24.732;2022-10-17T00:26:03;101074.72;;;6.11;100.00
8051;BME280;4068;42.158;24.732;2022-10-17T00:28:30;101090.28;;;6.17;100.00
8051;BME280;4068;42.158;24.732;2022-10-17T00:31:00;101088.59;;;6.16;100.00
8051;BME280;4068;42.158;24.732;2022-10-17T00:33:27;101087.66;;;6.17;100.00
8051;BME280;4068;42.158;24.732;2022-10-17T00:36:07;101089.44;;;6.16;100.00
8051;BME280;4068;42.158;24.732;2022-10-17T00:38:34;101072.16;;;6.09;100.00
8051;BME280;4068;42.158;24.732;2022-10-17T00:40:59;101095.56;;;6.17;100.00
8051;BME280;4068;42.158;24.732;2022-10-17T00:43:25;101050.72;;;5.95;100.00
8051;BME280;4068;42.158;24.732;2022-10-17T00:45:50;101094.53;;;6.21;100.00
8051;BME280;4068;42.158;24.732;2022-10-17T00:48:16;101094.41;;;6.24;100.00
8051;BME280;4068;42.158;24.732;2022-10-17T00:50:43;101090.22;;;6.18;100.00
8051;BME280;4068;42.158;24.732;2022-10-17T00:53:10;101085.03;;;6.17;100.00
8051;BME280;4068;42.158;24.732;2022-10-17T00:55:42;101076.56;;;6.09;100.00
8051;BME280;4068;42.158;24.732;2022-10-17T00:58:09;101097.22;;;6.19;100.00
8051;BME280;4068;42.158;24.732;2022-10-17T01:00:35;101079.28;;;6.05;100.00
8051;BME280;4068;42.158;24.732;2022-10-17T01:03:01;101100.81;;;6.17;100.00
8051;BME280;4068;42.158;24.732;2022-10-17T01:05:27;101089.56;;;6.13;100.00
8051;BME280;4068;42.158;24.732;2022-10-17T01:07:53;101074.72;;;6.11;100.00
8051;BME280;4068;42.158;24.732;2022-10-17T01:10:19;101070.91;;;5.94;100.00
8051;BME280;4068;42.158;24.732;2022-10-17T01:12:59;101095.69;;;6.14;100.00
8051;BME280;4068;42.158;24.732;2022-10-17T01:18:12;101098.66;;;6.04;100.00
8051;BME280;4068;42.158;24.732;2022-10-17T01:31:53;101111.53;;;5.87;100.00
8051;BME280;4068;42.158;24.732;2022-10-17T01:35:35;101107.47;;;5.78;100.00
8051;BME280;4068;42.158;24.732;2022-10-17T01:37:47;101113.91;;;5.69;100.00
8051;BME280;4068;42.158;24.732;2022-10-17T01:40:20;101090.81;;;5.52;100.00
8051;BME280;4068;42.158;24.732;2022-10-17T01:43:10;101095.91;;;5.57;100.00
8051;BME280;4068;42.158;24.732;2022-10-17T01:45:43;101101.41;;;5.51;100.00
8051;BME280;4068;42.158;24.732;2022-10-17T01:48:15;101101.63;;;5.45;100.00
8051;BME280;4068;42.158;24.732;2022-10-17T01:50:46;101108.75;;;5.41;100.00
8051;BME280;4068;42.158;24.732;2022-10-17T01:53:21;101103.47;;;5.41;100.00
8051;BME280;4068;42.158;24.732;2022-10-17T01:55:49;101105.63;;;5.30;100.00
8051;BME280;4068;42.158;24.732;2022-10-17T01:58:22;101098.28;;;5.40;100.00
8051;BME280;4068;42.158;24.732;2022-10-17T02:00:50;101110.44;;;5.69;100.00
8051;BME280;4068;42.158;24.732;2022-10-17T02:03:18;101110.88;;;6.07;100.00
8051;BME280;4068;42.158;24.732;2022-10-17T02:05:45;101123.97;;;6.32;100.00
8051;BME280;4068;42.158;24.732;2022-10-17T02:08:11;101110.91;;;6.29;100.00
8051;BME280;4068;42.158;24.732;2022-10-17T02:11:02;101132.97;;;6.27;100.00
8051;BME280;4068;42.158;24.732;2022-10-17T02:16:11;101128.09;;;6.39;100.00
8051;BME280;4068;42.158;24.732;2022-10-17T02:19:10;101131.41;;;6.68;100.00
8051;BME280;4068;42.158;24.732;2022-10-17T02:21:46;101103.06;;;6.28;100.00
8051;BME280;4068;42.158;24.732;2022-10-17T02:29:46;101154.13;;;6.00;100.00
8051;BME280;4068;42.158;24.732;2022-10-17T02:35:12;101114.09;;;5.65;100.00
8051;BME280;4068;42.158;24.732;2022-10-17T02:37:40;101147.84;;;5.79;100.00
8051;BME280;4068;42.158;24.732;2022-10-17T02:40:08;101156.84;;;5.72;100.00
8051;BME280;4068;42.158;24.732;2022-10-17T02:42:35;101160.00;;;5.56;100.00
8051;BME280;4068;42.158;24.732;2022-10-17T02:45:03;101159.13;;;5.56;100.00
8051;BME280;4068;42.158;24.732;2022-10-17T02:50:08;101167.59;;;5.39;100.00
8051;BME280;4068;42.158;24.732;2022-10-17T02:52:42;101165.44;;;5.25;100.00
8051;BME280;4068;42.158;24.732;2022-10-17T02:55:15;101171.88;;;5.14;100.00
8051;BME280;4068;42.158;24.732;2022-10-17T02:57:51;101159.22;;;4.99;100.00
8051;BME280;4068;42.158;24.732;2022-10-17T03:00:19;101165.13;;;5.06;100.00
8051;BME280;4068;42.158;24.732;2022-10-17T03:02:47;101172.81;;;5.13;100.00
8051;BME280;4068;42.158;24.732;2022-10-17T03:05:16;101174.56;;;5.13;100.00
8051;BME280;4068;42.158;24.732;2022-10-17T03:07:42;101129.69;;;4.91;100.00
8051;BME280;4068;42.158;24.732;2022-10-17T03:10:08;101137.31;;;4.98;100.00
8051;BME280;4068;42.158;24.732;2022-10-17T03:12:33;101176.19;;;5.17;100.00
8051;BME280;4068;42.158;24.732;2022-10-17T03:14:58;101177.97;;;5.16;100.00
8051;BME280;4068;42.158;24.732;2022-10-17T03:17:24;101178.53;;;4.98;100.00
8051;BME280;4068;42.158;24.732;2022-10-17T03:19:49;101145.78;;;4.80;100.00
8051;BME280;4068;42.158;24.732;2022-10-17T03:22:15;101174.09;;;5.00;100.00
8051;BME280;4068;42.158;24.732;2022-10-17T03:24:40;101183.66;;;5.03;100.00
8051;BME280;4068;42.158;24.732;2022-10-17T03:27:05;101148.19;;;4.88;100.00
8051;BME280;4068;42.158;24.732;2022-10-17T03:29:31;101181.06;;;5.01;100.00
8051;BME280;4068;42.158;24.732;2022-10-17T03:31:56;101149.25;;;4.82;100.00
8051;BME280;4068;42.158;24.732;2022-10-17T03:34:22;101183.59;;;5.04;100.00
8051;BME280;4068;42.158;24.732;2022-10-17T03:36:47;101180.13;;;5.04;100.00
8051;BME280;4068;42.158;24.732;2022-10-17T03:39:12;101146.63;;;4.82;100.00
8051;BME280;4068;42.158;24.732;2022-10-17T03:41:38;101168.91;;;4.97;100.00
8051;BME280;4068;42.158;24.732;2022-10-17T03:44:03;101180.34;;;4.96;100.00
8051;BME280;4068;42.158;24.732;2022-10-17T03:46:29;101175.28;;;4.90;100.00
8051;BME280;4068;42.158;24.732;2022-10-17T03:48:54;101180.50;;;4.91;100.00
8051;BME280;4068;42.158;24.732;2022-10-17T03:51:20;101175.97;;;4.96;100.00
8051;BME280;4068;42.158;24.732;2022-10-17T03:53:45;101174.19;;;4.97;100.00
8051;BME280;4068;42.158;24.732;2022-10-17T03:58:41;101172.56;;;4.93;100.00
8051;BME280;4068;42.158;24.732;2022-10-17T04:01:09;101171.66;;;4.94;100.00
8051;BME280;4068;42.158;24.732;2022-10-17T04:03:35;101182.31;;;4.89;100.00
8051;BME280;4068;42.158;24.732;2022-10-17T04:06:02;101181.75;;;4.79;100.00
8051;BME280;4068;42.158;24.732;2022-10-17T04:08:28;101179.06;;;4.81;100.00
8051;BME280;4068;42.158;24.732;2022-10-17T04:10:58;101178.97;;;4.84;100.00
8051;BME280;4068;42.158;24.732;2022-10-17T04:13:24;101181.28;;;4.95;100.00
8051;BME280;4068;42.158;24.732;2022-10-17T04:15:56;101183.59;;;5.04;100.00
8051;BME280;4068;42.158;24.732;2022-10-17T04:18:22;101188.00;;;5.04;100.00
8051;BME280;4068;42.158;24.732;2022-10-17T04:20:47;101169.81;;;4.97;100.00
8051;BME280;4068;42.158;24.732;2022-10-17T04:23:13;101157.78;;;4.89;100.00
8051;BME280;4068;42.158;24.732;2022-10-17T04:25:38;101188.63;;;5.12;100.00
8051;BME280;4068;42.158;24.732;2022-10-17T04:28:04;101155.94;;;4.92;100.00
8051;BME280;4068;42.158;24.732;2022-10-17T04:30:29;101198.09;;;5.17;100.00
8051;BME280;4068;42.158;24.732;2022-10-17T04:32:55;101208.63;;;5.17;100.00
8051;BME280;4068;42.158;24.732;2022-10-17T04:35:20;101208.75;;;5.13;100.00
8051;BME280;4068;42.158;24.732;2022-10-17T04:37:46;101204.38;;;5.13;100.00
8051;BME280;4068;42.158;24.732;2022-10-17T04:40:11;101203.41;;;5.16;100.00
8051;BME280;4068;42.158;24.732;2022-10-17T04:42:37;101161.25;;;4.91;100.00
8051;BME280;4068;42.158;24.732;2022-10-17T04:45:03;101203.38;;;5.17;100.00
8051;BME280;4068;42.158;24.732;2022-10-17T04:47:29;101213.69;;;5.24;100.00
8051;BME280;4068;42.158;24.732;2022-10-17T04:49:54;101194.66;;;5.15;100.00
8051;BME280;4068;42.158;24.732;2022-10-17T04:52:19;101173.38;;;4.95;100.00
8051;BME280;4068;42.158;24.732;2022-10-17T04:54:45;101228.78;;;5.17;100.00
8051;BME280;4068;42.158;24.732;2022-10-17T04:57:10;101227.69;;;5.24;100.00
8051;BME280;4068;42.158;24.732;2022-10-17T04:59:36;101234.94;;;5.46;100.00
8051;BME280;4068;42.158;24.732;2022-10-17T05:02:02;101222.56;;;5.48;100.00
8051;BME280;4068;42.158;24.732;2022-10-17T05:04:27;101236.22;;;5.59;100.00
8051;BME280;4068;42.158;24.732;2022-10-17T05:06:52;101233.56;;;5.61;100.00
8051;BME280;4068;42.158;24.732;2022-10-17T05:09:18;101252.81;;;5.61;100.00
8051;BME280;4068;42.158;24.732;2022-10-17T05:11:43;101217.50;;;5.42;100.00
8051;BME280;4068;42.158;24.732;2022-10-17T05:14:09;101257.84;;;5.69;100.00
8051;BME280;4068;42.158;24.732;2022-10-17T05:16:34;101264.59;;;5.78;100.00
8051;BME280;4068;42.158;24.732;2022-10-17T05:19:00;101270.00;;;5.73;100.00
8051;BME280;4068;42.158;24.732;2022-10-17T05:21:27;101271.53;;;5.80;100.00
8051;BME280;4068;42.158;24.732;2022-10-17T05:23:53;101266.81;;;5.90;100.00
8051;BME280;4068;42.158;24.732;2022-10-17T05:26:20;101238.38;;;5.75;100.00
8051;BME280;4068;42.158;24.732;2022-10-17T05:28:45;101271.09;;;5.93;100.00
8051;BME280;4068;42.158;24.732;2022-10-17T05:31:11;101277.31;;;5.92;100.00
8051;BME280;4068;42.158;24.732;2022-10-17T05:33:38;101284.91;;;6.01;100.00
8051;BME280;4068;42.158;24.732;2022-10-17T05:36:04;101295.66;;;6.21;100.00
8051;BME280;4068;42.158;24.732;2022-10-17T05:38:30;101288.66;;;6.20;100.00
8051;BME280;4068;42.158;24.732;2022-10-17T05:41:00;101302.25;;;6.33;100.00
8051;BME280;4068;42.158;24.732;2022-10-17T05:43:26;101291.59;;;6.36;100.00
8051;BME280;4068;42.158;24.732;2022-10-17T05:45:53;101301.44;;;6.56;100.00
8051;BME280;4068;42.158;24.732;2022-10-17T05:48:19;101297.53;;;6.68;100.00
8051;BME280;4068;42.158;24.732;2022-10-17T05:50:44;101307.53;;;6.82;100.00
8051;BME280;4068;42.158;24.732;2022-10-17T05:53:10;101315.75;;;6.98;100.00
8051;BME280;4068;42.158;24.732;2022-10-17T05:55:35;101308.88;;;7.18;100.00
8051;BME280;4068;42.158;24.732;2022-10-17T05:58:01;101296.81;;;7.11;100.00
8051;BME280;4068;42.158;24.732;2022-10-17T06:00:27;101325.03;;;7.32;100.00
8051;BME280;4068;42.158;24.732;2022-10-17T06:02:52;101289.47;;;7.19;100.00
8051;BME280;4068;42.158;24.732;2022-10-17T06:05:20;101301.13;;;7.37;100.00
8051;BME280;4068;42.158;24.732;2022-10-17T06:07:45;101331.34;;;7.74;100.00
8051;BME280;4068;42.158;24.732;2022-10-17T06:10:11;101317.06;;;7.78;100.00
8051;BME280;4068;42.158;24.732;2022-10-17T06:12:39;101343.22;;;8.06;100.00
8051;BME280;4068;42.158;24.732;2022-10-17T06:15:05;101346.41;;;8.15;100.00
8051;BME280;4068;42.158;24.732;2022-10-17T06:17:30;101340.84;;;8.21;100.00
8051;BME280;4068;42.158;24.732;2022-10-17T06:19:56;101351.59;;;8.38;100.00
8051;BME280;4068;42.158;24.732;2022-10-17T06:22:21;101353.88;;;8.48;100.00
8051;BME280;4068;42.158;24.732;2022-10-17T06:24:47;101363.25;;;8.55;100.00
8051;BME280;4068;42.158;24.732;2022-10-17T06:27:12;101364.00;;;8.58;100.00
8051;BME280;4068;42.158;24.732;2022-10-17T06:29:38;101329.22;;;8.25;100.00
8051;BME280;4068;42.158;24.732;2022-10-17T06:32:04;101351.91;;;8.53;100.00
8051;BME280;4068;42.158;24.732;2022-10-17T06:34:29;101361.22;;;8.61;100.00
8051;BME280;4068;42.158;24.732;2022-10-17T06:36:54;101372.59;;;8.84;100.00
8051;BME280;4068;42.158;24.732;2022-10-17T06:39:20;101380.75;;;8.98;100.00
8051;BME280;4068;42.158;24.732;2022-10-17T06:41:45;101367.31;;;9.03;100.00
8051;BME280;4068;42.158;24.732;2022-10-17T06:44:11;101365.41;;;9.07;100.00
8051;BME280;4068;42.158;24.732;2022-10-17T06:46:37;101376.22;;;9.21;100.00
8051;BME280;4068;42.158;24.732;2022-10-17T06:49:03;101377.88;;;9.24;100.00
8051;BME280;4068;42.158;24.732;2022-10-17T06:51:30;101375.38;;;9.40;100.00
8051;BME280;4068;42.158;24.732;2022-10-17T06:53:57;101372.94;;;9.54;100.00
8051;BME280;4068;42.158;24.732;2022-10-17T06:56:23;101373.38;;;9.64;100.00
8051;BME280;4068;42.158;24.732;2022-10-17T06:58:48;101371.75;;;9.79;100.00
8051;BME280;4068;42.158;24.732;2022-10-17T07:01:15;101363.16;;;9.93;100.00
8051;BME280;4068;42.158;24.732;2022-10-17T07:03:41;101342.66;;;9.96;100.00
8051;BME280;4068;42.158;24.732;2022-10-17T07:06:08;101374.34;;;10.17;100.00
8051;BME280;4068;42.158;24.732;2022-10-17T07:08:35;101368.34;;;10.31;100.00
8051;BME280;4068;42.158;24.732;2022-10-17T07:11:12;101365.03;;;10.45;100.00
8051;BME280;4068;42.158;24.732;2022-10-17T07:13:38;101374.41;;;10.52;100.00
8051;BME280;4068;42.158;24.732;2022-10-17T07:16:04;101369.22;;;10.66;100.00
8051;BME280;4068;42.158;24.732;2022-10-17T07:18:29;101379.19;;;10.79;99.06
8051;BME280;4068;42.158;24.732;2022-10-17T07:20:55;101382.09;;;10.92;99.10
8051;BME280;4068;42.158;24.732;2022-10-17T07:23:21;101371.38;;;10.93;98.87
8051;BME280;4068;42.158;24.732;2022-10-17T07:25:46;101369.63;;;11.10;99.00
8051;BME280;4068;42.158;24.732;2022-10-17T07:28:13;101383.78;;;11.26;98.31
8051;BME280;4068;42.158;24.732;2022-10-17T07:30:39;101386.63;;;11.23;98.50
8051;BME280;4068;42.158;24.732;2022-10-17T07:33:04;101387.22;;;11.44;98.24
8051;BME280;4068;42.158;24.732;2022-10-17T07:35:29;101379.53;;;11.55;97.70
8051;BME280;4068;42.158;24.732;2022-10-17T07:37:55;101345.06;;;11.54;96.60
8051;BME280;4068;42.158;24.732;2022-10-17T07:40:20;101379.53;;;11.87;95.74
8051;BME280;4068;42.158;24.732;2022-10-17T07:42:46;101380.66;;;11.83;94.72
8051;BME280;4068;42.158;24.732;2022-10-17T07:45:11;101383.06;;;12.04;94.62
8051;BME280;4068;42.158;24.732;2022-10-17T07:47:36;101341.91;;;11.95;92.73
8051;BME280;4068;42.158;24.732;2022-10-17T07:50:04;101362.16;;;12.28;91.28
8051;BME280;4068;42.158;24.732;2022-10-17T07:52:29;101379.56;;;12.34;90.74
8051;BME280;4068;42.158;24.732;2022-10-17T07:54:55;101378.66;;;12.49;90.98
8051;BME280;4068;42.158;24.732;2022-10-17T07:57:20;101374.38;;;12.47;90.98
8051;BME280;4068;42.158;24.732;2022-10-17T07:59:46;101361.66;;;12.52;90.02
8051;BME280;4068;42.158;24.732;2022-10-17T08:02:21;101377.09;;;12.75;89.50
8051;BME280;4068;42.158;24.732;2022-10-17T08:04:47;101367.19;;;12.63;89.66
8051;BME280;4068;42.158;24.732;2022-10-17T08:07:13;101366.72;;;12.85;89.34
8051;BME280;4068;42.158;24.732;2022-10-17T08:09:40;101362.84;;;12.91;89.07
8051;BME280;4068;42.158;24.732;2022-10-17T08:12:05;101369.03;;;13.20;87.27
8051;BME280;4068;42.158;24.732;2022-10-17T08:14:31;101341.78;;;13.29;85.32
8051;BME280;4068;42.158;24.732;2022-10-17T08:16:57;101356.16;;;13.56;83.46
8051;BME280;4068;42.158;24.732;2022-10-17T08:19:22;101354.91;;;13.61;83.82
8051;BME280;4068;42.158;24.732;2022-10-17T08:21:48;101342.25;;;13.51;84.15
8051;BME280;4068;42.158;24.732;2022-10-17T08:24:14;101355.28;;;13.70;83.69
8051;BME280;4068;42.158;24.732;2022-10-17T08:26:40;101321.16;;;13.75;84.24
8051;BME280;4068;42.158;24.732;2022-10-17T08:29:11;101363.19;;;13.98;83.24
8051;BME280;4068;42.158;24.732;2022-10-17T08:31:37;101363.78;;;13.89;82.78
8051;BME280;4068;42.158;24.732;2022-10-17T08:34:02;101365.00;;;13.98;83.63
8051;BME280;4068;42.158;24.732;2022-10-17T08:36:46;101359.19;;;14.19;82.77
8051;BME280;4068;42.158;24.732;2022-10-17T08:39:12;101369.34;;;14.26;82.24
8051;BME280;4068;42.158;24.732;2022-10-17T08:42:19;101356.63;;;14.17;81.96
8051;BME280;4068;42.158;24.732;2022-10-17T08:47:40;101365.25;;;14.48;81.96
8051;BME280;4068;42.158;24.732;2022-10-17T08:50:12;101364.97;;;14.65;80.82
8051;BME280;4068;42.158;24.732;2022-10-17T08:52:44;101356.72;;;14.81;80.13
8051;BME280;4068;42.158;24.732;2022-10-17T08:55:15;101331.75;;;14.82;80.05
8051;BME280;4068;42.158;24.732;2022-10-17T08:57:41;101347.88;;;14.94;79.21
8051;BME280;4068;42.158;24.732;2022-10-17T09:00:18;101348.88;;;15.30;76.86
8051;BME280;4068;42.158;24.732;2022-10-17T09:03:00;101348.22;;;15.39;77.45
8051;BME280;4068;42.158;24.732;2022-10-17T09:11:46;101337.03;;;15.58;73.92
8051;BME280;4068;42.158;24.732;2022-10-17T09:20:13;101340.91;;;15.91;71.62
8051;BME280;4068;42.158;24.732;2022-10-17T09:22:46;101330.72;;;15.96;71.11
8051;BME280;4068;42.158;24.732;2022-10-17T09:25:15;101312.31;;;15.92;69.49
8051;BME280;4068;42.158;24.732;2022-10-17T09:27:51;101327.13;;;16.20;69.36
8051;BME280;4068;42.158;24.732;2022-10-17T09:33:20;101331.09;;;16.50;66.74
8051;BME280;4068;42.158;24.732;2022-10-17T09:35:47;101329.06;;;16.53;62.61
8051;BME280;4068;42.158;24.732;2022-10-17T09:38:16;101330.56;;;16.69;60.87
8051;BME280;4068;42.158;24.732;2022-10-17T09:40:43;101323.38;;;16.81;60.63
8051;BME280;4068;42.158;24.732;2022-10-17T09:43:12;101317.44;;;16.88;60.04
8051;BME280;4068;42.158;24.732;2022-10-17T09:45:45;101292.31;;;16.78;59.27
8051;BME280;4068;42.158;24.732;2022-10-17T09:48:25;101316.34;;;17.02;56.52
8051;BME280;4068;42.158;24.732;2022-10-17T09:50:55;101299.41;;;17.02;56.45
8051;BME280;4068;42.158;24.732;2022-10-17T09:53:33;101308.53;;;17.11;56.55
8051;BME280;4068;42.158;24.732;2022-10-17T09:56:07;101304.16;;;17.10;54.98
8051;BME280;4068;42.158;24.732;2022-10-17T09:58:48;101302.91;;;17.25;54.20
8051;BME280;4068;42.158;24.732;2022-10-17T10:01:32;101303.75;;;17.37;52.68
8051;BME280;4068;42.158;24.732;2022-10-17T10:04:15;101294.09;;;17.34;51.97
8051;BME280;4068;42.158;24.732;2022-10-17T10:07:02;101286.53;;;17.51;52.83
8051;BME280;4068;42.158;24.732;2022-10-17T10:09:30;101259.03;;;17.37;52.52
8051;BME280;4068;42.158;24.732;2022-10-17T10:11:57;101280.88;;;17.65;52.31
8051;BME280;4068;42.158;24.732;2022-10-17T10:14:34;101275.06;;;17.81;51.69
8051;BME280;4068;42.158;24.732;2022-10-17T10:17:05;101258.78;;;17.73;49.34
8051;BME280;4068;42.158;24.732;2022-10-17T10:19:49;101281.88;;;17.97;48.78
8051;BME280;4068;42.158;24.732;2022-10-17T10:22:17;101271.00;;;17.87;47.52
8051;BME280;4068;42.158;24.732;2022-10-17T10:24:43;101246.47;;;17.70;44.42
8051;BME280;4068;42.158;24.732;2022-10-17T10:27:14;101267.13;;;17.91;44.17
8051;BME280;4068;42.158;24.732;2022-10-17T10:29:51;101267.50;;;17.86;43.88
8051;BME280;4068;42.158;24.732;2022-10-17T10:32:27;101265.66;;;17.87;43.62
8051;BME280;4068;42.158;24.732;2022-10-17T10:34:59;101270.31;;;17.85;43.28
8051;BME280;4068;42.158;24.732;2022-10-17T10:37:41;101259.56;;;17.85;42.95
8051;BME280;4068;42.158;24.732;2022-10-17T10:42:40;101257.84;;;17.95;43.05
8051;BME280;4068;42.158;24.732;2022-10-17T10:45:19;101246.06;;;18.07;42.04
8051;BME280;4068;42.158;24.732;2022-10-17T10:47:53;101233.56;;;17.97;42.13
8051;BME280;4068;42.158;24.732;2022-10-17T10:50:23;101252.00;;;18.11;42.03
8051;BME280;4068;42.158;24.732;2022-10-17T10:55:49;101239.88;;;18.38;42.57
8051;BME280;4068;42.158;24.732;2022-10-17T11:01:20;101225.16;;;18.63;41.08
8051;BME280;4068;42.158;24.732;2022-10-17T11:04:03;101229.66;;;18.53;40.42
8051;BME280;4068;42.158;24.732;2022-10-17T11:06:35;101210.75;;;18.33;40.75
8051;BME280;4068;42.158;24.732;2022-10-17T11:12:10;101230.16;;;18.46;40.06
8051;BME280;4068;42.158;24.732;2022-10-17T11:17:24;101229.44;;;18.75;40.46
8051;BME280;4068;42.158;24.732;2022-10-17T11:22:41;101213.09;;;18.88;40.77
8051;BME280;4068;42.158;24.732;2022-10-17T11:25:36;101209.22;;;18.81;40.80
8051;BME280;4068;42.158;24.732;2022-10-17T11:28:14;101209.31;;;19.01;41.29
8051;BME280;4068;42.158;24.732;2022-10-17T11:31:05;101197.16;;;19.06;41.32
8051;BME280;4068;42.158;24.732;2022-10-17T11:36:07;101200.31;;;18.80;42.21
8051;BME280;4068;42.158;24.732;2022-10-17T11:38:55;101190.66;;;18.68;42.55
8051;BME280;4068;42.158;24.732;2022-10-17T11:41:36;101186.72;;;18.72;42.75
8051;BME280;4068;42.158;24.732;2022-10-17T11:46:57;101180.59;;;18.91;41.90
8051;BME280;4068;42.158;24.732;2022-10-17T11:49:29;101184.13;;;18.92;42.71
8051;BME280;4068;42.158;24.732;2022-10-17T11:52:13;101188.69;;;19.01;43.03
8051;BME280;4068;42.158;24.732;2022-10-17T11:54:43;101177.53;;;19.16;43.14
8051;BME280;4068;42.158;24.732;2022-10-17T11:57:38;101180.47;;;19.22;43.10
8051;BME280;4068;42.158;24.732;2022-10-17T12:00:41;101172.00;;;19.27;43.24
8051;BME280;4068;42.158;24.732;2022-10-17T12:06:07;101167.16;;;19.21;42.74
8051;BME280;4068;42.158;24.732;2022-10-17T12:11:49;101167.47;;;19.37;42.40
8051;BME280;4068;42.158;24.732;2022-10-17T12:17:03;101161.94;;;19.39;42.36
8051;BME280;4068;42.158;24.732;2022-10-17T12:19:34;101161.81;;;19.30;42.25
8051;BME280;4068;42.158;24.732;2022-10-17T12:22:25;101162.38;;;19.34;42.44
8051;BME280;4068;42.158;24.732;2022-10-17T12:25:01;101162.53;;;19.33;42.16
8051;BME280;4068;42.158;24.732;2022-10-17T12:30:04;101133.19;;;19.29;42.34
8051;BME280;4068;42.158;24.732;2022-10-17T12:32:31;101158.53;;;19.37;41.68
8051;BME280;4068;42.158;24.732;2022-10-17T12:34:57;101158.81;;;19.24;42.40
8051;BME280;4068;42.158;24.732;2022-10-17T12:43:01;101125.13;;;19.00;42.55
8051;BME280;4068;42.158;24.732;2022-10-17T12:51:08;101159.94;;;19.31;43.31
8051;BME280;4068;42.158;24.732;2022-10-17T12:56:40;101160.13;;;19.20;42.92
8051;BME280;4068;42.158;24.732;2022-10-17T13:01:39;101158.69;;;19.16;43.10
8051;BME280;4068;42.158;24.732;2022-10-17T13:04:09;101157.13;;;19.13;43.12
8051;BME280;4068;42.158;24.732;2022-10-17T13:06:38;101154.75;;;19.20;42.68
8051;BME280;4068;42.158;24.732;2022-10-17T13:09:19;101164.47;;;19.21;43.13
8051;BME280;4068;42.158;24.732;2022-10-17T13:11:48;101162.06;;;19.18;42.81
8051;BME280;4068;42.158;24.732;2022-10-17T13:14:15;101157.81;;;19.05;43.26
8051;BME280;4068;42.158;24.732;2022-10-17T13:17:01;101159.53;;;19.16;43.21
8051;BME280;4068;42.158;24.732;2022-10-17T13:19:39;101161.38;;;19.16;43.22
8051;BME280;4068;42.158;24.732;2022-10-17T13:22:26;101158.69;;;19.16;43.81
8051;BME280;4068;42.158;24.732;2022-10-17T13:25:13;101160.13;;;19.20;43.41
8051;BME280;4068;42.158;24.732;2022-10-17T13:27:39;101156.84;;;19.16;43.18
8051;BME280;4068;42.158;24.732;2022-10-17T13:30:34;101146.91;;;19.17;43.41
8051;BME280;4068;42.158;24.732;2022-10-17T13:33:01;101159.25;;;19.19;43.50
8051;BME280;4068;42.158;24.732;2022-10-17T13:37:54;101148.22;;;19.03;43.51
8051;BME280;4068;42.158;24.732;2022-10-17T13:40:28;101150.75;;;19.04;43.54
8051;BME280;4068;42.158;24.732;2022-10-17T13:42:56;101160.63;;;19.04;43.50
8051;BME280;4068;42.158;24.732;2022-10-17T13:45:45;101134.03;;;18.91;44.05
8051;BME280;4068;42.158;24.732;2022-10-17T13:48:24;101153.72;;;19.01;44.68
8051;BME280;4068;42.158;24.732;2022-10-17T13:50:52;101153.44;;;19.04;44.98
8051;BME280;4068;42.158;24.732;2022-10-17T13:53:34;101156.13;;;19.04;45.20
8051;BME280;4068;42.158;24.732;2022-10-17T13:56:04;101155.69;;;19.09;45.35
8051;BME280;4068;42.158;24.732;2022-10-17T13:58:50;101115.66;;;18.96;45.18
8051;BME280;4068;42.158;24.732;2022-10-17T14:01:17;101143.25;;;19.08;44.89
8051;BME280;4068;42.158;24.732;2022-10-17T14:03:44;101127.09;;;18.98;45.09
8051;BME280;4068;42.158;24.732;2022-10-17T14:06:27;101149.03;;;18.93;44.85
8051;BME280;4068;42.158;24.732;2022-10-17T14:11:41;101142.72;;;18.73;45.34
8051;BME280;4068;42.158;24.732;2022-10-17T14:14:19;101146.69;;;18.69;45.81
8051;BME280;4068;42.158;24.732;2022-10-17T14:16:46;101109.16;;;18.48;45.98
8051;BME280;4068;42.158;24.732;2022-10-17T14:19:27;101133.50;;;18.56;45.98
8051;BME280;4068;42.158;24.732;2022-10-17T14:22:23;101137.16;;;18.55;46.27
8051;BME280;4068;42.158;24.732;2022-10-17T14:24:49;101145.94;;;18.57;46.78
8051;BME280;4068;42.158;24.732;2022-10-17T14:30:33;101118.00;;;18.29;48.19
8051;BME280;4068;42.158;24.732;2022-10-17T14:33:01;101153.94;;;18.38;48.44
8051;BME280;4068;42.158;24.732;2022-10-17T14:35:28;101146.81;;;18.27;48.51
8051;BME280;4068;42.158;24.732;2022-10-17T14:38:00;101138.41;;;18.10;48.52
8051;BME280;4068;42.158;24.732;2022-10-17T14:40:27;101144.63;;;18.11;48.91
8051;BME280;4068;42.158;24.732;2022-10-17T14:42:56;101127.81;;;17.88;49.09
8051;BME280;4068;42.158;24.732;2022-10-17T14:45:26;101155.91;;;18.05;49.45
8051;BME280;4068;42.158;24.732;2022-10-17T14:47:55;101158.25;;;17.98;49.89
8051;BME280;4068;42.158;24.732;2022-10-17T14:50:22;101162.78;;;17.98;50.22
8051;BME280;4068;42.158;24.732;2022-10-17T14:55:39;101155.81;;;17.74;50.35
8051;BME280;4068;42.158;24.732;2022-10-17T14:58:23;101152.09;;;17.65;50.75
8051;BME280;4068;42.158;24.732;2022-10-17T15:00:49;101163.22;;;17.60;50.71
8051;BME280;4068;42.158;24.732;2022-10-17T15:03:14;101169.47;;;17.50;51.32
8051;BME280;4068;42.158;24.732;2022-10-17T15:05:39;101175.75;;;17.39;51.71